sensor_id;sensor_type;location;lat;lon;timestamp;pressure;altitude;pressure_sealevel;temperature;humidity
15932;BME280;8065;49.520;11.284;2023-06-22T00:00:49;97642.31;;;23.47;82.82
15932;BME280;8065;49.520;11.284;2023-06-22T00:03:17;97636.22;;;23.40;83.70
15932;BME280;8065;49.520;11.284;2023-06-22T00:05:44;97632.63;;;23.50;83.28
15932;BME280;8065;49.520;11.284;2023-06-22T00:08:11;97628.09;;;23.36;83.46
15932;BME280;8065;49.520;11.284;2023-06-22T00:10:39;97629.34;;;23.25;84.18
15932;BME280;8065;49.520;11.284;2023-06-22T00:13:07;97626.56;;;23.32;83.95
15932;BME280;8065;49.520;11.284;2023-06-22T00:15:34;97618.06;;;23.30;83.61
15932;BME280;8065;49.520;11.284;2023-06-22T00:18:00;97614.22;;;23.24;83.87
15932;BME280;8065;49.520;11.284;2023-06-22T00:20:28;97624.72;;;23.21;83.74
15932;BME280;8065;49.520;11.284;2023-06-22T00:22:55;97634.06;;;23.13;84.39
15932;BME280;8065;49.520;11.284;2023-06-22T00:25:22;97627.09;;;23.12;84.21
15932;BME280;8065;49.520;11.284;2023-06-22T00:27:50;97624.72;;;23.21;83.82
15932;BME280;8065;49.520;11.284;2023-06-22T00:30:17;97619.66;;;23.24;83.82
15932;BME280;8065;49.520;11.284;2023-06-22T00:32:44;97623.97;;;23.17;84.03
15932;BME280;8065;49.520;11.284;2023-06-22T00:35:12;97616.19;;;23.19;83.44
15932;BME280;8065;49.520;11.284;2023-06-22T00:37:38;97627.19;;;22.91;84.61
15932;BME280;8065;49.520;11.284;2023-06-22T00:40:09;97625.63;;;22.97;84.34
15932;BME280;8065;49.520;11.284;2023-06-22T00:42:37;97633.38;;;22.95;84.42
15932;BME280;8065;49.520;11.284;2023-06-22T00:45:06;97633.34;;;23.02;84.05
15932;BME280;8065;49.520;11.284;2023-06-22T00:47:34;97648.88;;;22.91;84.47
15932;BME280;8065;49.520;11.284;2023-06-22T00:50:02;97655.06;;;22.95;84.24
15932;BME280;8065;49.520;11.284;2023-06-22T00:52:29;97654.22;;;23.09;83.51
15932;BME280;8065;49.520;11.284;2023-06-22T00:54:59;97660.34;;;23.20;83.26
15932;BME280;8065;49.520;11.284;2023-06-22T00:57:28;97652.63;;;23.18;83.61
15932;BME280;8065;49.520;11.284;2023-06-22T00:59:55;97649.06;;;23.29;83.05
15932;BME280;8065;49.520;11.284;2023-06-22T01:02:22;97657.47;;;23.41;82.36
15932;BME280;8065;49.520;11.284;2023-06-22T01:04:49;97650.69;;;23.15;82.48
15932;BME280;8065;49.520;11.284;2023-06-22T01:07:21;97647.66;;;23.06;82.74
15932;BME280;8065;49.520;11.284;2023-06-22T01:09:53;97648.16;;;22.83;83.40
15932;BME280;8065;49.520;11.284;2023-06-22T01:12:24;97644.22;;;22.95;83.20
15932;BME280;8065;49.520;11.284;2023-06-22T01:14:57;97650.47;;;22.78;83.74
15932;BME280;8065;49.520;11.284;2023-06-22T01:17:29;97663.59;;;22.90;83.42
15932;BME280;8065;49.520;11.284;2023-06-22T01:19:56;97657.06;;;22.84;83.81
15932;BME280;8065;49.520;11.284;2023-06-22T01:22:25;97645.84;;;22.82;84.49
15932;BME280;8065;49.520;11.284;2023-06-22T01:24:59;97635.13;;;22.46;84.60
15932;BME280;8065;49.520;11.284;2023-06-22T01:27:39;97625.50;;;22.31;84.83
15932;BME280;8065;49.520;11.284;2023-06-22T01:30:09;97623.22;;;22.19;85.29
15932;BME280;8065;49.520;11.284;2023-06-22T01:32:38;97611.19;;;22.34;84.46
15932;BME280;8065;49.520;11.284;2023-06-22T01:35:07;97608.09;;;22.25;85.28
15932;BME280;8065;49.520;11.284;2023-06-22T01:37:36;97601.16;;;22.24;85.98
15932;BME280;8065;49.520;11.284;2023-06-22T01:40:04;97601.16;;;22.24;85.88
15932;BME280;8065;49.520;11.284;2023-06-22T01:42:31;97592.66;;;22.18;86.51
15932;BME280;8065;49.520;11.284;2023-06-22T01:44:59;97586.06;;;22.23;86.50
15932;BME280;8065;49.520;11.284;2023-06-22T01:47:27;97586.47;;;22.21;86.13
15932;BME280;8065;49.520;11.284;2023-06-22T01:49:54;97594.56;;;22.25;85.94
15932;BME280;8065;49.520;11.284;2023-06-22T01:52:21;97600.34;;;22.34;85.49
15932;BME280;8065;49.520;11.284;2023-06-22T01:54:47;97608.09;;;22.25;85.88
15932;BME280;8065;49.520;11.284;2023-06-22T01:57:14;97607.72;;;22.23;86.23
15932;BME280;8065;49.520;11.284;2023-06-22T01:59:48;97606.13;;;22.36;85.68
15932;BME280;8065;49.520;11.284;2023-06-22T02:02:16;97599.56;;;22.37;85.62
15932;BME280;8065;49.520;11.284;2023-06-22T02:04:49;97595.69;;;22.42;85.50
15932;BME280;8065;49.520;11.284;2023-06-22T02:07:18;97591.03;;;22.46;85.40
15932;BME280;8065;49.520;11.284;2023-06-22T02:09:48;97594.50;;;22.46;85.54
15932;BME280;8065;49.520;11.284;2023-06-22T02:12:20;97595.66;;;22.45;85.48
15932;BME280;8065;49.520;11.284;2023-06-22T02:14:47;97595.69;;;22.42;86.00
15932;BME280;8065;49.520;11.284;2023-06-22T02:17:16;97598.34;;;22.49;85.61
15932;BME280;8065;49.520;11.284;2023-06-22T02:19:43;97600.19;;;22.70;84.74
15932;BME280;8065;49.520;11.284;2023-06-22T02:22:11;97609.84;;;22.74;84.74
15932;BME280;8065;49.520;11.284;2023-06-22T02:24:38;97616.41;;;22.77;84.80
15932;BME280;8065;49.520;11.284;2023-06-22T02:27:05;97618.72;;;22.82;84.79
15932;BME280;8065;49.520;11.284;2023-06-22T02:29:32;97628.03;;;22.81;84.76
15932;BME280;8065;49.520;11.284;2023-06-22T02:31:59;97616.44;;;22.70;85.32
15932;BME280;8065;49.520;11.284;2023-06-22T02:34:25;97619.56;;;22.65;85.56
15932;BME280;8065;49.520;11.284;2023-06-22T02:36:52;97623.44;;;22.64;85.35
15932;BME280;8065;49.520;11.284;2023-06-22T02:39:21;97616.19;;;22.39;85.91
15932;BME280;8065;49.520;11.284;2023-06-22T02:41:48;97608.88;;;22.29;86.13
15932;BME280;8065;49.520;11.284;2023-06-22T02:44:15;97606.50;;;22.45;85.38
15932;BME280;8065;49.520;11.284;2023-06-22T02:46:41;97610.69;;;22.53;85.17
15932;BME280;8065;49.520;11.284;2023-06-22T02:49:08;97608.84;;;22.40;86.10
15932;BME280;8065;49.520;11.284;2023-06-22T02:51:34;97608.88;;;22.29;86.09
15932;BME280;8065;49.520;11.284;2023-06-22T02:54:01;97631.28;;;22.40;85.80
15932;BME280;8065;49.520;11.284;2023-06-22T02:56:29;97657.50;;;22.54;85.49
15932;BME280;8065;49.520;11.284;2023-06-22T02:58:56;97691.50;;;22.73;85.34
15932;BME280;8065;49.520;11.284;2023-06-22T03:01:26;97711.19;;;22.98;84.06
15932;BME280;8065;49.520;11.284;2023-06-22T03:03:53;97716.94;;;23.14;83.86
15932;BME280;8065;49.520;11.284;2023-06-22T03:06:19;97723.56;;;23.06;83.96
15932;BME280;8065;49.520;11.284;2023-06-22T03:08:48;97724.31;;;23.10;83.52
15932;BME280;8065;49.520;11.284;2023-06-22T03:11:14;97723.59;;;22.99;83.89
15932;BME280;8065;49.520;11.284;2023-06-22T03:13:42;97729.41;;;22.94;84.42
15932;BME280;8065;49.520;11.284;2023-06-22T03:16:10;97730.19;;;22.98;84.35
15932;BME280;8065;49.520;11.284;2023-06-22T03:18:37;97727.84;;;23.00;84.34
15932;BME280;8065;49.520;11.284;2023-06-22T03:21:03;97725.91;;;22.97;84.27
15932;BME280;8065;49.520;11.284;2023-06-22T03:23:30;97716.22;;;23.00;83.85
15932;BME280;8065;49.520;11.284;2023-06-22T03:25:56;97712.41;;;22.72;85.22
15932;BME280;8065;49.520;11.284;2023-06-22T03:28:23;97703.94;;;22.63;85.14
15932;BME280;8065;49.520;11.284;2023-06-22T03:30:51;97712.44;;;22.62;85.03
15932;BME280;8065;49.520;11.284;2023-06-22T03:33:17;97702.06;;;22.49;85.48
15932;BME280;8065;49.520;11.284;2023-06-22T03:35:44;97703.16;;;22.63;84.90
15932;BME280;8065;49.520;11.284;2023-06-22T03:38:10;97700.91;;;22.50;85.53
15932;BME280;8065;49.520;11.284;2023-06-22T03:40:36;97704.41;;;22.40;85.82
15932;BME280;8065;49.520;11.284;2023-06-22T03:43:03;97695.88;;;22.42;85.96
15932;BME280;8065;49.520;11.284;2023-06-22T03:45:29;97692.31;;;22.63;85.09
15932;BME280;8065;49.520;11.284;2023-06-22T03:47:57;97688.41;;;22.74;84.59
15932;BME280;8065;49.520;11.284;2023-06-22T03:50:23;97679.91;;;22.83;84.32
15932;BME280;8065;49.520;11.284;2023-06-22T03:52:50;97686.88;;;22.84;84.32
15932;BME280;8065;49.520;11.284;2023-06-22T03:55:19;97683.38;;;22.87;84.10
15932;BME280;8065;49.520;11.284;2023-06-22T03:57:45;97664.41;;;22.76;84.72
15932;BME280;8065;49.520;11.284;2023-06-22T04:00:12;97678.34;;;22.78;84.60
15932;BME280;8065;49.520;11.284;2023-06-22T04:02:41;97679.47;;;22.92;84.21
15932;BME280;8065;49.520;11.284;2023-06-22T04:05:09;97671.75;;;22.83;84.60
15932;BME280;8065;49.520;11.284;2023-06-22T04:07:35;97651.38;;;22.46;86.14
15932;BME280;8065;49.520;11.284;2023-06-22T04:10:03;97656.72;;;22.61;85.51
15932;BME280;8065;49.520;11.284;2023-06-22T04:12:30;97660.53;;;22.74;85.07
15932;BME280;8065;49.520;11.284;2023-06-22T04:14:57;97644.00;;;22.50;85.71
15932;BME280;8065;49.520;11.284;2023-06-22T04:17:24;97637.13;;;22.14;87.60
15932;BME280;8065;49.520;11.284;2023-06-22T04:19:51;97654.50;;;22.41;86.18
15932;BME280;8065;49.520;11.284;2023-06-22T04:22:18;97640.94;;;22.41;86.03
15932;BME280;8065;49.520;11.284;2023-06-22T04:24:45;97617.41;;;21.92;89.34
15932;BME280;8065;49.520;11.284;2023-06-22T04:27:11;97618.19;;;22.21;88.18
15932;BME280;8065;49.520;11.284;2023-06-22T04:29:38;97645.09;;;22.64;86.31
15932;BME280;8065;49.520;11.284;2023-06-22T04:32:13;97627.66;;;22.72;86.62
15932;BME280;8065;49.520;11.284;2023-06-22T04:34:40;97585.66;;;22.32;88.74
15932;BME280;8065;49.520;11.284;2023-06-22T04:37:06;97591.81;;;22.39;88.49
15932;BME280;8065;49.520;11.284;2023-06-22T04:39:34;97624.16;;;22.82;86.41
15932;BME280;8065;49.520;11.284;2023-06-22T04:42:01;97632.59;;;22.98;85.49
15932;BME280;8065;49.520;11.284;2023-06-22T04:44:27;97584.72;;;22.63;86.96
15932;BME280;8065;49.520;11.284;2023-06-22T04:46:55;97567.06;;;22.41;88.33
15932;BME280;8065;49.520;11.284;2023-06-22T04:49:25;97587.75;;;22.76;86.95
15932;BME280;8065;49.520;11.284;2023-06-22T04:51:57;97611.63;;;23.06;85.63
15932;BME280;8065;49.520;11.284;2023-06-22T04:54:24;97588.44;;;22.98;85.52
15932;BME280;8065;49.520;11.284;2023-06-22T04:56:52;97580.03;;;22.81;86.94
15932;BME280;8065;49.520;11.284;2023-06-22T04:59:21;97570.69;;;22.86;86.83
15932;BME280;8065;49.520;11.284;2023-06-22T05:01:53;97580.25;;;23.08;86.08
15932;BME280;8065;49.520;11.284;2023-06-22T05:04:21;97590.69;;;23.10;86.63
15932;BME280;8065;49.520;11.284;2023-06-22T05:06:48;97576.88;;;22.90;87.48
15932;BME280;8065;49.520;11.284;2023-06-22T05:09:14;97573.84;;;22.74;88.09
15932;BME280;8065;49.520;11.284;2023-06-22T05:11:42;97581.47;;;23.00;88.05
15932;BME280;8065;49.520;11.284;2023-06-22T05:14:10;97580.91;;;23.27;86.92
15932;BME280;8065;49.520;11.284;2023-06-22T05:16:37;97571.28;;;23.18;87.40
15932;BME280;8065;49.520;11.284;2023-06-22T05:19:04;97561.97;;;23.19;87.60
15932;BME280;8065;49.520;11.284;2023-06-22T05:21:30;97564.28;;;23.21;87.69
15932;BME280;8065;49.520;11.284;2023-06-22T05:23:57;97576.75;;;23.60;85.97
15932;BME280;8065;49.520;11.284;2023-06-22T05:26:26;97574.63;;;23.81;85.17
15932;BME280;8065;49.520;11.284;2023-06-22T05:28:53;97566.72;;;23.98;84.90
15932;BME280;8065;49.520;11.284;2023-06-22T05:31:21;97561.31;;;23.94;85.41
15932;BME280;8065;49.520;11.284;2023-06-22T05:33:51;97560.53;;;23.94;85.41
15932;BME280;8065;49.520;11.284;2023-06-22T05:36:17;97564.44;;;23.93;84.97
15932;BME280;8065;49.520;11.284;2023-06-22T05:38:45;97558.81;;;24.10;85.31
15932;BME280;8065;49.520;11.284;2023-06-22T05:41:12;97564.81;;;24.29;84.72
15932;BME280;8065;49.520;11.284;2023-06-22T05:43:39;97554.00;;;24.25;84.84
15932;BME280;8065;49.520;11.284;2023-06-22T05:46:05;97550.56;;;24.51;83.71
15932;BME280;8065;49.520;11.284;2023-06-22T05:48:33;97557.94;;;24.51;82.62
15932;BME280;8065;49.520;11.284;2023-06-22T05:51:00;97567.22;;;24.84;82.46
15932;BME280;8065;49.520;11.284;2023-06-22T05:53:26;97562.31;;;25.02;81.54
15932;BME280;8065;49.520;11.284;2023-06-22T05:55:53;97566.28;;;24.67;83.18
15932;BME280;8065;49.520;11.284;2023-06-22T05:58:19;97559.44;;;24.86;83.21
15932;BME280;8065;49.520;11.284;2023-06-22T06:00:46;97562.28;;;25.06;81.74
15932;BME280;8065;49.520;11.284;2023-06-22T06:03:13;97553.56;;;25.14;80.88
15932;BME280;8065;49.520;11.284;2023-06-22T06:05:43;97567.19;;;25.38;80.90
15932;BME280;8065;49.520;11.284;2023-06-22T06:08:10;97563.28;;;25.39;80.40
15932;BME280;8065;49.520;11.284;2023-06-22T06:10:37;97556.28;;;25.14;81.17
15932;BME280;8065;49.520;11.284;2023-06-22T06:13:04;97552.28;;;24.96;81.84
15932;BME280;8065;49.520;11.284;2023-06-22T06:15:31;97550.63;;;25.05;81.72
15932;BME280;8065;49.520;11.284;2023-06-22T06:17:57;97560.31;;;25.30;80.39
15932;BME280;8065;49.520;11.284;2023-06-22T06:20:25;97560.69;;;25.55;80.85
15932;BME280;8065;49.520;11.284;2023-06-22T06:22:54;97570.91;;;25.74;79.96
15932;BME280;8065;49.520;11.284;2023-06-22T06:25:21;97558.13;;;25.71;80.14
15932;BME280;8065;49.520;11.284;2023-06-22T06:27:49;97559.88;;;25.58;79.58
15932;BME280;8065;49.520;11.284;2023-06-22T06:30:18;97557.72;;;25.93;79.60
15932;BME280;8065;49.520;11.284;2023-06-22T06:32:45;97556.44;;;25.77;79.51
15932;BME280;8065;49.520;11.284;2023-06-22T06:35:13;97558.28;;;26.04;79.47
15932;BME280;8065;49.520;11.284;2023-06-22T06:37:41;97548.72;;;26.16;78.31
15932;BME280;8065;49.520;11.284;2023-06-22T06:40:10;97535.94;;;26.32;78.62
15932;BME280;8065;49.520;11.284;2023-06-22T06:42:37;97533.22;;;26.32;78.10
15932;BME280;8065;49.520;11.284;2023-06-22T06:45:07;97531.06;;;26.43;78.30
15932;BME280;8065;49.520;11.284;2023-06-22T06:47:34;97528.81;;;26.38;78.42
15932;BME280;8065;49.520;11.284;2023-06-22T06:50:00;97528.31;;;26.80;77.06
15932;BME280;8065;49.520;11.284;2023-06-22T06:52:27;97525.31;;;26.90;76.36
15932;BME280;8065;49.520;11.284;2023-06-22T06:54:53;97536.78;;;27.01;76.79
15932;BME280;8065;49.520;11.284;2023-06-22T06:57:21;97538.31;;;26.86;76.20
15932;BME280;8065;49.520;11.284;2023-06-22T06:59:48;97525.38;;;27.06;76.00
15932;BME280;8065;49.520;11.284;2023-06-22T07:02:14;97526.22;;;27.03;76.09
15932;BME280;8065;49.520;11.284;2023-06-22T07:04:41;97520.25;;;27.08;75.30
15932;BME280;8065;49.520;11.284;2023-06-22T07:07:07;97511.97;;;27.28;75.35
15932;BME280;8065;49.520;11.284;2023-06-22T07:09:34;97507.44;;;27.38;74.33
15932;BME280;8065;49.520;11.284;2023-06-22T07:12:00;97506.59;;;27.25;74.93
15932;BME280;8065;49.520;11.284;2023-06-22T07:14:28;97506.34;;;27.35;74.28
15932;BME280;8065;49.520;11.284;2023-06-22T07:16:56;97491.22;;;27.47;73.71
15932;BME280;8065;49.520;11.284;2023-06-22T07:19:26;97505.56;;;27.67;73.86
15932;BME280;8065;49.520;11.284;2023-06-22T07:21:53;97503.09;;;27.86;72.65
15932;BME280;8065;49.520;11.284;2023-06-22T07:24:19;97497.19;;;27.87;71.99
15932;BME280;8065;49.520;11.284;2023-06-22T07:26:46;97506.88;;;28.04;72.75
15932;BME280;8065;49.520;11.284;2023-06-22T07:29:13;97504.56;;;28.03;71.91
15932;BME280;8065;49.520;11.284;2023-06-22T07:31:41;97502.47;;;28.23;70.49
15932;BME280;8065;49.520;11.284;2023-06-22T07:34:07;97512.25;;;28.21;69.65
15932;BME280;8065;49.520;11.284;2023-06-22T07:36:34;97505.75;;;28.02;70.87
15932;BME280;8065;49.520;11.284;2023-06-22T07:39:01;97497.38;;;28.51;69.00
15932;BME280;8065;49.520;11.284;2023-06-22T07:41:27;97493.84;;;28.76;68.91
15932;BME280;8065;49.520;11.284;2023-06-22T07:43:54;97500.50;;;28.36;69.57
15932;BME280;8065;49.520;11.284;2023-06-22T07:46:20;97500.19;;;28.34;69.21
15932;BME280;8065;49.520;11.284;2023-06-22T07:48:48;97492.88;;;28.82;66.30
15932;BME280;8065;49.520;11.284;2023-06-22T07:51:15;97487.06;;;28.67;67.40
15932;BME280;8065;49.520;11.284;2023-06-22T07:53:41;97486.53;;;28.85;68.40
15932;BME280;8065;49.520;11.284;2023-06-22T07:56:10;97488.81;;;28.74;67.59
15932;BME280;8065;49.520;11.284;2023-06-22T07:58:36;97491.75;;;29.18;67.01
15932;BME280;8065;49.520;11.284;2023-06-22T08:01:03;97499.56;;;29.54;65.98
15932;BME280;8065;49.520;11.284;2023-06-22T08:03:29;97501.41;;;29.10;66.78
15932;BME280;8065;49.520;11.284;2023-06-22T08:05:57;97500.41;;;28.78;66.20
15932;BME280;8065;49.520;11.284;2023-06-22T08:08:24;97497.00;;;29.25;65.68
15932;BME280;8065;49.520;11.284;2023-06-22T08:10:50;97493.69;;;29.43;65.99
15932;BME280;8065;49.520;11.284;2023-06-22T08:13:17;97496.22;;;29.24;65.32
15932;BME280;8065;49.520;11.284;2023-06-22T08:15:44;97493.13;;;29.69;65.58
15932;BME280;8065;49.520;11.284;2023-06-22T08:18:11;97495.41;;;29.49;65.69
15932;BME280;8065;49.520;11.284;2023-06-22T08:20:37;97480.38;;;30.10;64.50
15932;BME280;8065;49.520;11.284;2023-06-22T08:23:05;97479.84;;;30.24;64.26
15932;BME280;8065;49.520;11.284;2023-06-22T08:25:31;97480.50;;;30.38;62.72
15932;BME280;8065;49.520;11.284;2023-06-22T08:27:59;97486.28;;;30.30;63.05
15932;BME280;8065;49.520;11.284;2023-06-22T08:30:25;97489.84;;;30.49;62.67
15932;BME280;8065;49.520;11.284;2023-06-22T08:32:52;97486.28;;;30.40;62.48
15932;BME280;8065;49.520;11.284;2023-06-22T08:35:19;97487.06;;;30.71;63.60
15932;BME280;8065;49.520;11.284;2023-06-22T08:37:45;97486.50;;;30.85;62.94
15932;BME280;8065;49.520;11.284;2023-06-22T08:40:19;97480.28;;;30.94;62.14
15932;BME280;8065;49.520;11.284;2023-06-22T08:42:47;97475.03;;;31.36;61.64
15932;BME280;8065;49.520;11.284;2023-06-22T08:45:14;97464.66;;;31.40;61.21
15932;BME280;8065;49.520;11.284;2023-06-22T08:47:41;97483.56;;;31.38;60.21
15932;BME280;8065;49.520;11.284;2023-06-22T08:50:08;97487.91;;;30.99;60.50
15932;BME280;8065;49.520;11.284;2023-06-22T08:52:35;97480.53;;;31.54;60.26
15932;BME280;8065;49.520;11.284;2023-06-22T08:55:01;97485.72;;;31.61;59.24
15932;BME280;8065;49.520;11.284;2023-06-22T08:57:29;97488.81;;;31.82;59.15
15932;BME280;8065;49.520;11.284;2023-06-22T08:59:57;97476.91;;;31.76;59.63
15932;BME280;8065;49.520;11.284;2023-06-22T09:02:24;97476.41;;;31.96;58.57
15932;BME280;8065;49.520;11.284;2023-06-22T09:04:51;97473.22;;;31.79;58.19
15932;BME280;8065;49.520;11.284;2023-06-22T09:07:20;97471.66;;;31.41;58.55
15932;BME280;8065;49.520;11.284;2023-06-22T09:09:49;97462.53;;;31.72;59.61
15932;BME280;8065;49.520;11.284;2023-06-22T09:12:15;97455.97;;;31.87;57.83
15932;BME280;8065;49.520;11.284;2023-06-22T09:14:43;97461.44;;;32.06;58.82
15932;BME280;8065;49.520;11.284;2023-06-22T09:17:10;97460.69;;;31.96;57.83
15932;BME280;8065;49.520;11.284;2023-06-22T09:19:36;97451.91;;;32.16;57.56
15932;BME280;8065;49.520;11.284;2023-06-22T09:22:03;97458.91;;;32.35;57.00
15932;BME280;8065;49.520;11.284;2023-06-22T09:24:31;97448.75;;;32.50;56.43
15932;BME280;8065;49.520;11.284;2023-06-22T09:26:57;97436.72;;;32.39;57.04
15932;BME280;8065;49.520;11.284;2023-06-22T09:29:24;97439.94;;;32.70;56.01
15932;BME280;8065;49.520;11.284;2023-06-22T09:31:52;97432.75;;;32.73;55.29
15932;BME280;8065;49.520;11.284;2023-06-22T09:34:19;97427.16;;;32.91;56.07
15932;BME280;8065;49.520;11.284;2023-06-22T09:36:46;97423.56;;;33.00;55.08
15932;BME280;8065;49.520;11.284;2023-06-22T09:39:12;97416.50;;;32.84;55.73
15932;BME280;8065;49.520;11.284;2023-06-22T09:41:39;97411.56;;;33.12;54.96
15932;BME280;8065;49.520;11.284;2023-06-22T09:44:05;97408.16;;;33.41;55.28
15932;BME280;8065;49.520;11.284;2023-06-22T09:46:32;97402.53;;;33.11;54.21
15932;BME280;8065;49.520;11.284;2023-06-22T09:49:00;97401.84;;;33.02;55.16
15932;BME280;8065;49.520;11.284;2023-06-22T09:51:26;97395.03;;;33.50;54.12
15932;BME280;8065;49.520;11.284;2023-06-22T09:53:53;97390.59;;;33.68;53.25
15932;BME280;8065;49.520;11.284;2023-06-22T09:56:20;97400.56;;;33.50;53.69
15932;BME280;8065;49.520;11.284;2023-06-22T09:58:46;97399.06;;;34.08;52.77
15932;BME280;8065;49.520;11.284;2023-06-22T10:01:15;97395.44;;;33.73;52.14
15932;BME280;8065;49.520;11.284;2023-06-22T10:03:42;97402.81;;;33.37;53.23
15932;BME280;8065;49.520;11.284;2023-06-22T10:06:10;97395.25;;;33.76;52.83
15932;BME280;8065;49.520;11.284;2023-06-22T10:08:36;97378.13;;;34.02;52.89
15932;BME280;8065;49.520;11.284;2023-06-22T10:11:02;97379.44;;;34.21;52.12
15932;BME280;8065;49.520;11.284;2023-06-22T10:13:29;97383.72;;;34.22;51.84
15932;BME280;8065;49.520;11.284;2023-06-22T10:15:55;97375.06;;;34.14;51.62
15932;BME280;8065;49.520;11.284;2023-06-22T10:18:22;97374.28;;;34.29;51.66
15932;BME280;8065;49.520;11.284;2023-06-22T10:20:50;97374.75;;;34.42;50.92
15932;BME280;8065;49.520;11.284;2023-06-22T10:23:18;97367.91;;;34.23;51.60
15932;BME280;8065;49.520;11.284;2023-06-22T10:25:45;97364.56;;;34.48;51.03
15932;BME280;8065;49.520;11.284;2023-06-22T10:28:12;97365.59;;;34.71;48.99
15932;BME280;8065;49.520;11.284;2023-06-22T10:30:38;97360.28;;;34.67;48.68
15932;BME280;8065;49.520;11.284;2023-06-22T10:33:06;97371.47;;;34.78;49.71
15932;BME280;8065;49.520;11.284;2023-06-22T10:35:33;97380.97;;;34.92;48.58
15932;BME280;8065;49.520;11.284;2023-06-22T10:37:59;97370.81;;;35.04;49.86
15932;BME280;8065;49.520;11.284;2023-06-22T10:40:27;97381.72;;;35.13;49.13
15932;BME280;8065;49.520;11.284;2023-06-22T10:42:53;97379.22;;;34.95;48.47
15932;BME280;8065;49.520;11.284;2023-06-22T10:45:20;97379.84;;;35.25;49.01
15932;BME280;8065;49.520;11.284;2023-06-22T10:47:46;97371.75;;;35.41;49.77
15932;BME280;8065;49.520;11.284;2023-06-22T10:50:13;97364.66;;;35.14;47.40
15932;BME280;8065;49.520;11.284;2023-06-22T10:52:40;97379.41;;;35.52;48.77
15932;BME280;8065;49.520;11.284;2023-06-22T10:55:08;97379.88;;;35.51;47.62
15932;BME280;8065;49.520;11.284;2023-06-22T10:57:36;97384.09;;;35.72;47.61
15932;BME280;8065;49.520;11.284;2023-06-22T11:00:05;97380.19;;;35.84;48.44
15932;BME280;8065;49.520;11.284;2023-06-22T11:02:33;97382.97;;;36.16;47.82
15932;BME280;8065;49.520;11.284;2023-06-22T11:04:59;97386.28;;;36.20;46.80
15932;BME280;8065;49.520;11.284;2023-06-22T11:07:26;97386.91;;;36.35;47.18
15932;BME280;8065;49.520;11.284;2023-06-22T11:09:54;97377.78;;;35.97;46.09
15932;BME280;8065;49.520;11.284;2023-06-22T11:12:20;97380.56;;;36.29;46.31
15932;BME280;8065;49.520;11.284;2023-06-22T11:14:48;97377.31;;;36.30;45.53
15932;BME280;8065;49.520;11.284;2023-06-22T11:17:16;97371.66;;;36.19;45.24
15932;BME280;8065;49.520;11.284;2023-06-22T11:19:43;97364.69;;;35.92;47.31
15932;BME280;8065;49.520;11.284;2023-06-22T11:22:10;97359.69;;;35.96;46.86
15932;BME280;8065;49.520;11.284;2023-06-22T11:24:36;97351.91;;;36.32;46.90
15932;BME280;8065;49.520;11.284;2023-06-22T11:27:03;97348.97;;;36.52;46.98
15932;BME280;8065;49.520;11.284;2023-06-22T11:29:29;97343.59;;;36.32;46.34
15932;BME280;8065;49.520;11.284;2023-06-22T11:31:57;97342.56;;;36.29;45.34
15932;BME280;8065;49.520;11.284;2023-06-22T11:34:23;97329.66;;;36.63;45.90
15932;BME280;8065;49.520;11.284;2023-06-22T11:36:50;97320.63;;;36.26;47.37
15932;BME280;8065;49.520;11.284;2023-06-22T11:39:16;97331.78;;;36.00;46.26
15932;BME280;8065;49.520;11.284;2023-06-22T11:41:43;97330.31;;;36.04;45.97
15932;BME280;8065;49.520;11.284;2023-06-22T11:44:09;97328.75;;;35.98;45.13
15932;BME280;8065;49.520;11.284;2023-06-22T11:46:36;97328.00;;;36.34;47.13
15932;BME280;8065;49.520;11.284;2023-06-22T11:49:04;97312.75;;;36.13;47.62
15932;BME280;8065;49.520;11.284;2023-06-22T11:51:31;97319.13;;;36.25;46.34
15932;BME280;8065;49.520;11.284;2023-06-22T11:53:57;97312.59;;;36.76;45.66
15932;BME280;8065;49.520;11.284;2023-06-22T11:56:24;97312.25;;;36.57;46.16
15932;BME280;8065;49.520;11.284;2023-06-22T11:58:50;97300.25;;;36.77;47.36
15932;BME280;8065;49.520;11.284;2023-06-22T12:01:16;97302.84;;;36.92;44.89
15932;BME280;8065;49.520;11.284;2023-06-22T12:03:43;97292.28;;;37.07;45.26
15932;BME280;8065;49.520;11.284;2023-06-22T12:06:11;97276.72;;;37.49;44.05
15932;BME280;8065;49.520;11.284;2023-06-22T12:08:37;97277.72;;;37.46;44.44
15932;BME280;8065;49.520;11.284;2023-06-22T12:11:04;97274.38;;;36.97;43.82
15932;BME280;8065;49.520;11.284;2023-06-22T12:13:30;97275.78;;;36.70;45.35
15932;BME280;8065;49.520;11.284;2023-06-22T12:15:57;97281.69;;;37.00;45.58
15932;BME280;8065;49.520;11.284;2023-06-22T12:18:23;97271.38;;;37.06;43.67
15932;BME280;8065;49.520;11.284;2023-06-22T12:20:50;97268.88;;;37.14;43.87
15932;BME280;8065;49.520;11.284;2023-06-22T12:23:17;97261.84;;;37.40;44.27
15932;BME280;8065;49.520;11.284;2023-06-22T12:25:45;97258.56;;;37.48;44.63
15932;BME280;8065;49.520;11.284;2023-06-22T12:28:11;97256.03;;;37.38;44.32
15932;BME280;8065;49.520;11.284;2023-06-22T12:30:38;97243.94;;;37.86;44.50
15932;BME280;8065;49.520;11.284;2023-06-22T12:33:04;97240.88;;;38.07;43.96
15932;BME280;8065;49.520;11.284;2023-06-22T12:35:31;97227.22;;;38.09;43.58
15932;BME280;8065;49.520;11.284;2023-06-22T12:37:57;97218.56;;;38.29;44.25
15932;BME280;8065;49.520;11.284;2023-06-22T12:40:25;97201.31;;;38.47;44.37
15932;BME280;8065;49.520;11.284;2023-06-22T12:42:52;97199.91;;;38.24;43.68
15932;BME280;8065;49.520;11.284;2023-06-22T12:45:18;97195.00;;;37.61;43.39
15932;BME280;8065;49.520;11.284;2023-06-22T12:47:46;97199.97;;;38.13;43.13
15932;BME280;8065;49.520;11.284;2023-06-22T12:50:15;97201.31;;;38.47;44.13
15932;BME280;8065;49.520;11.284;2023-06-22T12:52:41;97197.75;;;38.52;43.08
15932;BME280;8065;49.520;11.284;2023-06-22T12:55:08;97195.38;;;38.21;42.78
15932;BME280;8065;49.520;11.284;2023-06-22T12:57:36;97192.34;;;38.77;42.88
15932;BME280;8065;49.520;11.284;2023-06-22T13:00:03;97192.13;;;38.75;42.41